Terminal Aerodrome Forecast
Issued by NWS

Home | Current Version | Previous Version | Graphics & Text | Print | Product List | Glossary On
Versions: 1 2 3 4 5 6 7 8 9 10 11 12 13 14
447
FTUS43 KTOP 031123
TAFFOE
TAF
KFOE 031123Z 0312/0412 06004KT P6SM OVC140
     FM032100 11005KT P6SM VCSH OVC070
     FM040000 10004KT 6SM -SHRA BR OVC045
     FM040400 14004KT 2SM -SHRA BR OVC025
     FM040700 17004KT 1 1/2SM -SHRA BR OVC010=

USA.gov is the U.S. government's official web portal to all federal, state and local government web resources and services.